sensor_id;sensor_type;location;lat;lon;timestamp;temperature;humidity
59469;DHT22;45277;52.768;18.262;2022-11-20T00:01:15;-1.30;99.90
59469;DHT22;45277;52.768;18.262;2022-11-20T00:02:47;-1.30;99.90
59469;DHT22;45277;52.768;18.262;2022-11-20T00:04:19;-1.30;99.90
59469;DHT22;45277;52.768;18.262;2022-11-20T00:05:50;-1.30;99.90
59469;DHT22;45277;52.768;18.262;2022-11-20T00:07:22;-1.30;99.90
59469;DHT22;45277;52.768;18.262;2022-11-20T00:08:55;-1.30;99.90
59469;DHT22;45277;52.768;18.262;2022-11-20T00:10:27;-1.30;99.90
59469;DHT22;45277;52.768;18.262;2022-11-20T00:11:58;-1.30;99.90
59469;DHT22;45277;52.768;18.262;2022-11-20T00:13:30;-1.30;99.90
59469;DHT22;45277;52.768;18.262;2022-11-20T00:15:02;-1.30;99.90
59469;DHT22;45277;52.768;18.262;2022-11-20T00:16:34;-1.30;99.90
59469;DHT22;45277;52.768;18.262;2022-11-20T00:18:05;-1.30;99.90
59469;DHT22;45277;52.768;18.262;2022-11-20T00:19:37;-1.30;99.90
59469;DHT22;45277;52.768;18.262;2022-11-20T00:21:12;-1.30;99.90
59469;DHT22;45277;52.768;18.262;2022-11-20T00:22:44;-1.30;99.90
59469;DHT22;45277;52.768;18.262;2022-11-20T00:24:16;-1.30;99.90
59469;DHT22;45277;52.768;18.262;2022-11-20T00:25:47;-1.30;99.90
59469;DHT22;45277;52.768;18.262;2022-11-20T00:27:19;-1.30;99.90
59469;DHT22;45277;52.768;18.262;2022-11-20T00:28:53;-1.20;99.90
59469;DHT22;45277;52.768;18.262;2022-11-20T00:30:25;-1.20;99.90
59469;DHT22;45277;52.768;18.262;2022-11-20T00:31:56;-1.30;99.90
59469;DHT22;45277;52.768;18.262;2022-11-20T00:33:28;-1.30;99.90
59469;DHT22;45277;52.768;18.262;2022-11-20T00:35:00;-1.30;99.90
59469;DHT22;45277;52.768;18.262;2022-11-20T00:36:33;-1.30;99.90
59469;DHT22;45277;52.768;18.262;2022-11-20T00:38:05;-1.30;99.90
59469;DHT22;45277;52.768;18.262;2022-11-20T00:39:36;-1.30;99.90
59469;DHT22;45277;52.768;18.262;2022-11-20T00:41:10;-1.30;99.90
59469;DHT22;45277;52.768;18.262;2022-11-20T00:42:41;-1.30;99.90
59469;DHT22;45277;52.768;18.262;2022-11-20T00:44:13;-1.30;99.90
59469;DHT22;45277;52.768;18.262;2022-11-20T00:45:44;-1.30;99.90
59469;DHT22;45277;52.768;18.262;2022-11-20T00:47:16;-1.30;99.90
59469;DHT22;45277;52.768;18.262;2022-11-20T00:48:48;-1.30;99.90
59469;DHT22;45277;52.768;18.262;2022-11-20T00:50:19;-1.30;99.90
59469;DHT22;45277;52.768;18.262;2022-11-20T00:51:50;-1.30;99.90
59469;DHT22;45277;52.768;18.262;2022-11-20T00:53:23;-1.30;99.90
59469;DHT22;45277;52.768;18.262;2022-11-20T00:54:54;-1.30;99.90
59469;DHT22;45277;52.768;18.262;2022-11-20T00:56:25;-1.30;99.90
59469;DHT22;45277;52.768;18.262;2022-11-20T00:57:57;-1.20;99.90
59469;DHT22;45277;52.768;18.262;2022-11-20T00:59:28;-1.20;99.90
59469;DHT22;45277;52.768;18.262;2022-11-20T01:01:13;-1.20;99.90
59469;DHT22;45277;52.768;18.262;2022-11-20T01:02:44;-1.20;99.90
59469;DHT22;45277;52.768;18.262;2022-11-20T01:04:16;-1.20;99.90
59469;DHT22;45277;52.768;18.262;2022-11-20T01:05:47;-1.30;99.90
59469;DHT22;45277;52.768;18.262;2022-11-20T01:07:19;-1.20;99.90
59469;DHT22;45277;52.768;18.262;2022-11-20T01:08:52;-1.20;99.90
59469;DHT22;45277;52.768;18.262;2022-11-20T01:10:24;-1.30;99.90
59469;DHT22;45277;52.768;18.262;2022-11-20T01:11:55;-1.30;99.90
59469;DHT22;45277;52.768;18.262;2022-11-20T01:13:28;-1.20;99.90
59469;DHT22;45277;52.768;18.262;2022-11-20T01:15:08;-1.20;99.90
59469;DHT22;45277;52.768;18.262;2022-11-20T01:16:42;-1.30;99.90
59469;DHT22;45277;52.768;18.262;2022-11-20T01:18:14;-1.30;99.90
59469;DHT22;45277;52.768;18.262;2022-11-20T01:19:49;-1.20;99.90
59469;DHT22;45277;52.768;18.262;2022-11-20T01:21:30;-1.20;99.90
59469;DHT22;45277;52.768;18.262;2022-11-20T01:23:03;-1.20;99.90
59469;DHT22;45277;52.768;18.262;2022-11-20T01:24:34;-1.30;99.90
59469;DHT22;45277;52.768;18.262;2022-11-20T01:26:23;-1.30;99.90
59469;DHT22;45277;52.768;18.262;2022-11-20T01:27:55;-1.20;99.90
59469;DHT22;45277;52.768;18.262;2022-11-20T01:29:26;-1.30;99.90
59469;DHT22;45277;52.768;18.262;2022-11-20T01:30:57;-1.20;99.90
59469;DHT22;45277;52.768;18.262;2022-11-20T01:32:29;-1.30;99.90
59469;DHT22;45277;52.768;18.262;2022-11-20T01:34:04;-1.20;99.90
59469;DHT22;45277;52.768;18.262;2022-11-20T01:35:35;-1.20;99.90
59469;DHT22;45277;52.768;18.262;2022-11-20T01:37:06;-1.20;99.90
59469;DHT22;45277;52.768;18.262;2022-11-20T01:38:38;-1.20;99.90
59469;DHT22;45277;52.768;18.262;2022-11-20T01:40:10;-1.20;99.90
59469;DHT22;45277;52.768;18.262;2022-11-20T01:41:42;-1.20;99.90
59469;DHT22;45277;52.768;18.262;2022-11-20T01:43:32;-1.20;99.90
59469;DHT22;45277;52.768;18.262;2022-11-20T01:47:39;-1.20;99.90
59469;DHT22;45277;52.768;18.262;2022-11-20T01:49:21;-1.20;99.90
59469;DHT22;45277;52.768;18.262;2022-11-20T01:50:55;-1.20;99.90
59469;DHT22;45277;52.768;18.262;2022-11-20T01:52:41;-1.20;99.90
59469;DHT22;45277;52.768;18.262;2022-11-20T01:54:21;-1.20;99.90
59469;DHT22;45277;52.768;18.262;2022-11-20T01:55:57;-1.20;99.90
59469;DHT22;45277;52.768;18.262;2022-11-20T01:57:31;-1.20;99.90
59469;DHT22;45277;52.768;18.262;2022-11-20T01:59:05;-1.20;99.90
59469;DHT22;45277;52.768;18.262;2022-11-20T02:00:38;-1.10;99.90
59469;DHT22;45277;52.768;18.262;2022-11-20T02:02:09;-1.10;99.90
59469;DHT22;45277;52.768;18.262;2022-11-20T02:03:41;-1.20;99.90
59469;DHT22;45277;52.768;18.262;2022-11-20T02:07:05;-1.20;99.90
59469;DHT22;45277;52.768;18.262;2022-11-20T02:08:38;-1.20;99.90
59469;DHT22;45277;52.768;18.262;2022-11-20T02:10:09;-1.20;99.90
59469;DHT22;45277;52.768;18.262;2022-11-20T02:11:42;-1.20;99.90
59469;DHT22;45277;52.768;18.262;2022-11-20T02:13:14;-1.20;99.90
59469;DHT22;45277;52.768;18.262;2022-11-20T02:15:04;-1.20;99.90
59469;DHT22;45277;52.768;18.262;2022-11-20T02:16:39;-1.20;99.90
59469;DHT22;45277;52.768;18.262;2022-11-20T02:18:14;-1.20;99.90
59469;DHT22;45277;52.768;18.262;2022-11-20T02:19:47;-1.20;99.90
59469;DHT22;45277;52.768;18.262;2022-11-20T02:21:37;-1.20;99.90
59469;DHT22;45277;52.768;18.262;2022-11-20T02:23:22;-1.20;99.90
59469;DHT22;45277;52.768;18.262;2022-11-20T02:24:55;-1.20;99.90
59469;DHT22;45277;52.768;18.262;2022-11-20T02:26:28;-1.20;99.90
59469;DHT22;45277;52.768;18.262;2022-11-20T02:28:01;-1.20;99.90
59469;DHT22;45277;52.768;18.262;2022-11-20T02:29:40;-1.20;99.90
59469;DHT22;45277;52.768;18.262;2022-11-20T02:31:13;-1.20;99.90
59469;DHT22;45277;52.768;18.262;2022-11-20T02:32:44;-1.20;99.90
59469;DHT22;45277;52.768;18.262;2022-11-20T02:34:16;-1.20;99.90
59469;DHT22;45277;52.768;18.262;2022-11-20T02:35:47;-1.20;99.90
59469;DHT22;45277;52.768;18.262;2022-11-20T02:37:19;-1.30;99.90
59469;DHT22;45277;52.768;18.262;2022-11-20T02:38:51;-1.30;99.90
59469;DHT22;45277;52.768;18.262;2022-11-20T02:40:23;-1.20;99.90
59469;DHT22;45277;52.768;18.262;2022-11-20T02:41:56;-1.20;99.90
59469;DHT22;45277;52.768;18.262;2022-11-20T02:43:27;-1.20;99.90
59469;DHT22;45277;52.768;18.262;2022-11-20T02:44:58;-1.20;99.90
59469;DHT22;45277;52.768;18.262;2022-11-20T02:46:30;-1.20;99.90
59469;DHT22;45277;52.768;18.262;2022-11-20T02:48:02;-1.20;99.90
59469;DHT22;45277;52.768;18.262;2022-11-20T02:49:34;-1.20;99.90
59469;DHT22;45277;52.768;18.262;2022-11-20T02:51:05;-1.20;99.90
59469;DHT22;45277;52.768;18.262;2022-11-20T02:52:36;-1.20;99.90
59469;DHT22;45277;52.768;18.262;2022-11-20T02:54:08;-1.20;99.90
59469;DHT22;45277;52.768;18.262;2022-11-20T02:55:39;-1.20;99.90
59469;DHT22;45277;52.768;18.262;2022-11-20T02:57:10;-1.20;99.90
59469;DHT22;45277;52.768;18.262;2022-11-20T02:58:42;-1.20;99.90
59469;DHT22;45277;52.768;18.262;2022-11-20T03:00:13;-1.20;99.90
59469;DHT22;45277;52.768;18.262;2022-11-20T03:01:45;-1.20;99.90
59469;DHT22;45277;52.768;18.262;2022-11-20T03:03:17;-1.20;99.90
59469;DHT22;45277;52.768;18.262;2022-11-20T03:04:48;-1.20;99.90
59469;DHT22;45277;52.768;18.262;2022-11-20T03:06:19;-1.20;99.90
59469;DHT22;45277;52.768;18.262;2022-11-20T03:07:51;-1.20;99.90
59469;DHT22;45277;52.768;18.262;2022-11-20T03:09:22;-1.20;99.90
59469;DHT22;45277;52.768;18.262;2022-11-20T03:10:53;-1.30;99.90
59469;DHT22;45277;52.768;18.262;2022-11-20T03:12:25;-1.30;99.90
59469;DHT22;45277;52.768;18.262;2022-11-20T03:13:56;-1.30;99.90
59469;DHT22;45277;52.768;18.262;2022-11-20T03:15:27;-1.20;99.90
59469;DHT22;45277;52.768;18.262;2022-11-20T03:16:59;-1.20;99.90
59469;DHT22;45277;52.768;18.262;2022-11-20T03:18:30;-1.20;99.90
59469;DHT22;45277;52.768;18.262;2022-11-20T03:20:01;-1.20;99.90
59469;DHT22;45277;52.768;18.262;2022-11-20T03:21:33;-1.30;99.90
59469;DHT22;45277;52.768;18.262;2022-11-20T03:23:05;-1.20;99.90
59469;DHT22;45277;52.768;18.262;2022-11-20T03:24:36;-1.20;99.90
59469;DHT22;45277;52.768;18.262;2022-11-20T03:26:22;-1.20;99.90
59469;DHT22;45277;52.768;18.262;2022-11-20T03:27:54;-1.20;99.90
59469;DHT22;45277;52.768;18.262;2022-11-20T03:29:25;-1.20;99.90
59469;DHT22;45277;52.768;18.262;2022-11-20T03:30:57;-1.30;99.90
59469;DHT22;45277;52.768;18.262;2022-11-20T03:32:28;-1.30;99.90
59469;DHT22;45277;52.768;18.262;2022-11-20T03:34:00;-1.30;99.90
59469;DHT22;45277;52.768;18.262;2022-11-20T03:35:32;-1.30;99.90
59469;DHT22;45277;52.768;18.262;2022-11-20T03:37:03;-1.30;99.90
59469;DHT22;45277;52.768;18.262;2022-11-20T03:38:35;-1.30;99.90
59469;DHT22;45277;52.768;18.262;2022-11-20T03:40:07;-1.20;99.90
59469;DHT22;45277;52.768;18.262;2022-11-20T03:41:40;-1.30;99.90
59469;DHT22;45277;52.768;18.262;2022-11-20T03:43:12;-1.30;99.90
59469;DHT22;45277;52.768;18.262;2022-11-20T03:44:43;-1.30;99.90
59469;DHT22;45277;52.768;18.262;2022-11-20T03:46:14;-1.30;99.90
59469;DHT22;45277;52.768;18.262;2022-11-20T03:47:46;-1.30;99.90
59469;DHT22;45277;52.768;18.262;2022-11-20T03:49:17;-1.30;99.90
59469;DHT22;45277;52.768;18.262;2022-11-20T03:50:49;-1.30;99.90
59469;DHT22;45277;52.768;18.262;2022-11-20T03:52:20;-1.20;99.90
59469;DHT22;45277;52.768;18.262;2022-11-20T03:53:54;-1.20;99.90
59469;DHT22;45277;52.768;18.262;2022-11-20T03:55:25;-1.20;99.90
59469;DHT22;45277;52.768;18.262;2022-11-20T03:56:57;-1.20;99.90
59469;DHT22;45277;52.768;18.262;2022-11-20T03:58:28;-1.20;99.90
59469;DHT22;45277;52.768;18.262;2022-11-20T04:00:00;-1.20;99.90
59469;DHT22;45277;52.768;18.262;2022-11-20T04:01:34;-1.20;99.90
59469;DHT22;45277;52.768;18.262;2022-11-20T04:03:05;-1.20;99.90
59469;DHT22;45277;52.768;18.262;2022-11-20T04:04:37;-1.20;99.90
59469;DHT22;45277;52.768;18.262;2022-11-20T04:06:13;-1.30;99.90
59469;DHT22;45277;52.768;18.262;2022-11-20T04:07:44;-1.30;99.90
59469;DHT22;45277;52.768;18.262;2022-11-20T04:09:15;-1.30;99.90
59469;DHT22;45277;52.768;18.262;2022-11-20T04:10:47;-1.30;99.90
59469;DHT22;45277;52.768;18.262;2022-11-20T04:12:18;-1.30;99.90
59469;DHT22;45277;52.768;18.262;2022-11-20T04:13:57;-1.30;99.90
59469;DHT22;45277;52.768;18.262;2022-11-20T04:15:28;-1.30;99.90
59469;DHT22;45277;52.768;18.262;2022-11-20T04:17:00;-1.30;99.90
59469;DHT22;45277;52.768;18.262;2022-11-20T04:18:31;-1.30;99.90
59469;DHT22;45277;52.768;18.262;2022-11-20T04:20:03;-1.30;99.90
59469;DHT22;45277;52.768;18.262;2022-11-20T04:21:35;-1.30;99.90
59469;DHT22;45277;52.768;18.262;2022-11-20T04:23:06;-1.30;99.90
59469;DHT22;45277;52.768;18.262;2022-11-20T04:24:37;-1.30;99.90
59469;DHT22;45277;52.768;18.262;2022-11-20T04:26:11;-1.40;99.90
59469;DHT22;45277;52.768;18.262;2022-11-20T04:27:43;-1.40;99.90
59469;DHT22;45277;52.768;18.262;2022-11-20T04:29:14;-1.40;99.90
59469;DHT22;45277;52.768;18.262;2022-11-20T04:30:46;-1.40;99.90
59469;DHT22;45277;52.768;18.262;2022-11-20T04:32:17;-1.30;99.90
59469;DHT22;45277;52.768;18.262;2022-11-20T04:33:48;-1.30;99.90
59469;DHT22;45277;52.768;18.262;2022-11-20T04:35:20;-1.30;99.90
59469;DHT22;45277;52.768;18.262;2022-11-20T04:36:51;-1.30;99.90
59469;DHT22;45277;52.768;18.262;2022-11-20T04:38:22;-1.30;99.90
59469;DHT22;45277;52.768;18.262;2022-11-20T04:39:54;-1.30;99.90
59469;DHT22;45277;52.768;18.262;2022-11-20T04:41:28;-1.30;99.90
59469;DHT22;45277;52.768;18.262;2022-11-20T04:42:59;-1.30;99.90
59469;DHT22;45277;52.768;18.262;2022-11-20T04:44:31;-1.30;99.90
59469;DHT22;45277;52.768;18.262;2022-11-20T04:46:02;-1.30;99.90
59469;DHT22;45277;52.768;18.262;2022-11-20T04:47:33;-1.30;99.90
59469;DHT22;45277;52.768;18.262;2022-11-20T04:49:05;-1.30;99.90
59469;DHT22;45277;52.768;18.262;2022-11-20T04:50:40;-1.30;99.90
59469;DHT22;45277;52.768;18.262;2022-11-20T04:52:11;-1.30;99.90
59469;DHT22;45277;52.768;18.262;2022-11-20T04:53:43;-1.40;99.90
59469;DHT22;45277;52.768;18.262;2022-11-20T04:55:14;-1.30;99.90
59469;DHT22;45277;52.768;18.262;2022-11-20T04:56:49;-1.30;99.90
59469;DHT22;45277;52.768;18.262;2022-11-20T04:58:22;-1.30;99.90
59469;DHT22;45277;52.768;18.262;2022-11-20T04:59:53;-1.30;99.90
59469;DHT22;45277;52.768;18.262;2022-11-20T05:01:24;-1.30;99.90
59469;DHT22;45277;52.768;18.262;2022-11-20T05:02:56;-1.30;99.90
59469;DHT22;45277;52.768;18.262;2022-11-20T05:04:27;-1.30;99.90
59469;DHT22;45277;52.768;18.262;2022-11-20T05:06:06;-1.30;99.90
59469;DHT22;45277;52.768;18.262;2022-11-20T05:07:38;-1.30;99.90
59469;DHT22;45277;52.768;18.262;2022-11-20T05:09:09;-1.30;99.90
59469;DHT22;45277;52.768;18.262;2022-11-20T05:10:41;-1.20;99.90
59469;DHT22;45277;52.768;18.262;2022-11-20T05:12:12;-1.20;99.90
59469;DHT22;45277;52.768;18.262;2022-11-20T05:13:43;-1.20;99.90
59469;DHT22;45277;52.768;18.262;2022-11-20T05:15:15;-1.20;99.90
59469;DHT22;45277;52.768;18.262;2022-11-20T05:16:46;-1.20;99.90
59469;DHT22;45277;52.768;18.262;2022-11-20T05:18:18;-1.20;99.90
59469;DHT22;45277;52.768;18.262;2022-11-20T05:19:49;-1.20;99.90
59469;DHT22;45277;52.768;18.262;2022-11-20T05:21:21;-1.30;99.90
59469;DHT22;45277;52.768;18.262;2022-11-20T05:22:52;-1.30;99.90
59469;DHT22;45277;52.768;18.262;2022-11-20T05:24:27;-1.30;99.90
59469;DHT22;45277;52.768;18.262;2022-11-20T05:25:59;-1.30;99.90
59469;DHT22;45277;52.768;18.262;2022-11-20T05:27:31;-1.20;99.90
59469;DHT22;45277;52.768;18.262;2022-11-20T05:29:02;-1.20;99.90
59469;DHT22;45277;52.768;18.262;2022-11-20T05:30:34;-1.20;99.90
59469;DHT22;45277;52.768;18.262;2022-11-20T05:32:05;-1.20;99.90
59469;DHT22;45277;52.768;18.262;2022-11-20T05:33:40;-1.20;99.90
59469;DHT22;45277;52.768;18.262;2022-11-20T05:35:12;-1.20;99.90
59469;DHT22;45277;52.768;18.262;2022-11-20T05:36:44;-1.20;99.90
59469;DHT22;45277;52.768;18.262;2022-11-20T05:38:15;-1.20;99.90
59469;DHT22;45277;52.768;18.262;2022-11-20T05:39:46;-1.20;99.90
59469;DHT22;45277;52.768;18.262;2022-11-20T05:41:19;-1.20;99.90
59469;DHT22;45277;52.768;18.262;2022-11-20T05:42:51;-1.20;99.90
59469;DHT22;45277;52.768;18.262;2022-11-20T05:44:22;-1.20;99.90
59469;DHT22;45277;52.768;18.262;2022-11-20T05:45:54;-1.20;99.90
59469;DHT22;45277;52.768;18.262;2022-11-20T05:47:33;-1.20;99.90
59469;DHT22;45277;52.768;18.262;2022-11-20T05:49:05;-1.20;99.90
59469;DHT22;45277;52.768;18.262;2022-11-20T05:50:36;-1.20;99.90
59469;DHT22;45277;52.768;18.262;2022-11-20T05:52:08;-1.30;99.90
59469;DHT22;45277;52.768;18.262;2022-11-20T05:53:39;-1.30;99.90
59469;DHT22;45277;52.768;18.262;2022-11-20T05:55:11;-1.30;99.90
59469;DHT22;45277;52.768;18.262;2022-11-20T05:56:42;-1.30;99.90
59469;DHT22;45277;52.768;18.262;2022-11-20T05:58:13;-1.30;99.90
59469;DHT22;45277;52.768;18.262;2022-11-20T05:59:45;-1.30;99.90
59469;DHT22;45277;52.768;18.262;2022-11-20T06:01:20;-1.30;99.90
59469;DHT22;45277;52.768;18.262;2022-11-20T06:02:51;-1.30;99.90
59469;DHT22;45277;52.768;18.262;2022-11-20T06:04:24;-1.20;99.90
59469;DHT22;45277;52.768;18.262;2022-11-20T06:05:55;-1.20;99.90
59469;DHT22;45277;52.768;18.262;2022-11-20T06:07:27;-1.30;99.90
59469;DHT22;45277;52.768;18.262;2022-11-20T06:08:58;-1.30;99.90
59469;DHT22;45277;52.768;18.262;2022-11-20T06:10:30;-1.20;99.90
59469;DHT22;45277;52.768;18.262;2022-11-20T06:12:01;-1.30;99.90
59469;DHT22;45277;52.768;18.262;2022-11-20T06:13:32;-1.30;99.90
59469;DHT22;45277;52.768;18.262;2022-11-20T06:15:05;-1.20;99.90
59469;DHT22;45277;52.768;18.262;2022-11-20T06:16:37;-1.20;99.90
59469;DHT22;45277;52.768;18.262;2022-11-20T06:18:08;-1.20;99.90
59469;DHT22;45277;52.768;18.262;2022-11-20T06:19:39;-1.20;99.90
59469;DHT22;45277;52.768;18.262;2022-11-20T06:21:13;-1.20;99.90
59469;DHT22;45277;52.768;18.262;2022-11-20T06:22:45;-1.20;99.90
59469;DHT22;45277;52.768;18.262;2022-11-20T06:24:17;-1.20;99.90
59469;DHT22;45277;52.768;18.262;2022-11-20T06:25:48;-1.20;99.90
59469;DHT22;45277;52.768;18.262;2022-11-20T06:27:20;-1.20;99.90
59469;DHT22;45277;52.768;18.262;2022-11-20T06:28:51;-1.20;99.90
59469;DHT22;45277;52.768;18.262;2022-11-20T06:30:23;-1.20;99.90
59469;DHT22;45277;52.768;18.262;2022-11-20T06:31:54;-1.20;99.90
59469;DHT22;45277;52.768;18.262;2022-11-20T06:33:26;-1.20;99.90
59469;DHT22;45277;52.768;18.262;2022-11-20T06:34:57;-1.20;99.90
59469;DHT22;45277;52.768;18.262;2022-11-20T06:36:29;-1.20;99.90
59469;DHT22;45277;52.768;18.262;2022-11-20T06:38:00;-1.20;99.90
59469;DHT22;45277;52.768;18.262;2022-11-20T06:39:31;-1.20;99.90
59469;DHT22;45277;52.768;18.262;2022-11-20T06:41:04;-1.30;99.90
59469;DHT22;45277;52.768;18.262;2022-11-20T06:42:35;-1.20;99.90
59469;DHT22;45277;52.768;18.262;2022-11-20T06:44:07;-1.30;99.90
59469;DHT22;45277;52.768;18.262;2022-11-20T06:45:38;-1.30;99.90
59469;DHT22;45277;52.768;18.262;2022-11-20T06:47:09;-1.30;99.90
59469;DHT22;45277;52.768;18.262;2022-11-20T06:48:41;-1.30;99.90
59469;DHT22;45277;52.768;18.262;2022-11-20T06:50:13;-1.30;99.90
59469;DHT22;45277;52.768;18.262;2022-11-20T06:51:44;-1.30;99.90
59469;DHT22;45277;52.768;18.262;2022-11-20T06:53:15;-1.20;99.90
59469;DHT22;45277;52.768;18.262;2022-11-20T06:54:47;-1.20;99.90
59469;DHT22;45277;52.768;18.262;2022-11-20T06:56:18;-1.20;99.90
59469;DHT22;45277;52.768;18.262;2022-11-20T06:57:50;-1.10;99.90
59469;DHT22;45277;52.768;18.262;2022-11-20T06:59:21;-1.20;99.90
59469;DHT22;45277;52.768;18.262;2022-11-20T07:00:53;-1.10;99.90
59469;DHT22;45277;52.768;18.262;2022-11-20T07:02:25;-1.10;99.90
59469;DHT22;45277;52.768;18.262;2022-11-20T07:03:56;-1.10;99.90
59469;DHT22;45277;52.768;18.262;2022-11-20T07:05:28;-1.10;99.90
59469;DHT22;45277;52.768;18.262;2022-11-20T07:06:59;-1.00;99.90
59469;DHT22;45277;52.768;18.262;2022-11-20T07:08:31;-1.00;99.90
59469;DHT22;45277;52.768;18.262;2022-11-20T07:10:02;-1.00;99.90
59469;DHT22;45277;52.768;18.262;2022-11-20T07:11:34;-1.00;99.90
59469;DHT22;45277;52.768;18.262;2022-11-20T07:13:05;-1.00;99.90
59469;DHT22;45277;52.768;18.262;2022-11-20T07:14:37;-1.00;99.90
59469;DHT22;45277;52.768;18.262;2022-11-20T07:16:09;-1.00;99.90
59469;DHT22;45277;52.768;18.262;2022-11-20T07:17:40;-1.00;99.90
59469;DHT22;45277;52.768;18.262;2022-11-20T07:19:12;-1.00;99.90
59469;DHT22;45277;52.768;18.262;2022-11-20T07:20:44;-1.00;99.90
59469;DHT22;45277;52.768;18.262;2022-11-20T07:22:15;-1.10;99.90
59469;DHT22;45277;52.768;18.262;2022-11-20T07:23:46;-1.00;99.90
59469;DHT22;45277;52.768;18.262;2022-11-20T07:25:18;-1.00;99.90
59469;DHT22;45277;52.768;18.262;2022-11-20T07:26:49;-1.00;99.90
59469;DHT22;45277;52.768;18.262;2022-11-20T07:28:20;-1.00;99.90
59469;DHT22;45277;52.768;18.262;2022-11-20T07:29:52;-1.00;99.90
59469;DHT22;45277;52.768;18.262;2022-11-20T07:31:23;-0.90;99.90
59469;DHT22;45277;52.768;18.262;2022-11-20T07:32:56;-0.90;99.90
59469;DHT22;45277;52.768;18.262;2022-11-20T07:34:27;-0.90;99.90
59469;DHT22;45277;52.768;18.262;2022-11-20T07:35:59;-0.90;99.90
59469;DHT22;45277;52.768;18.262;2022-11-20T07:37:34;-0.90;99.90
59469;DHT22;45277;52.768;18.262;2022-11-20T07:39:05;-0.90;99.90
59469;DHT22;45277;52.768;18.262;2022-11-20T07:40:37;-0.90;99.90
59469;DHT22;45277;52.768;18.262;2022-11-20T07:42:08;-0.90;99.90
59469;DHT22;45277;52.768;18.262;2022-11-20T07:43:40;-0.80;99.90
59469;DHT22;45277;52.768;18.262;2022-11-20T07:45:11;-0.80;99.90
59469;DHT22;45277;52.768;18.262;2022-11-20T07:46:43;-0.80;99.90
59469;DHT22;45277;52.768;18.262;2022-11-20T07:48:14;-0.80;99.90
59469;DHT22;45277;52.768;18.262;2022-11-20T07:49:46;-0.70;99.90
59469;DHT22;45277;52.768;18.262;2022-11-20T07:51:17;-0.80;99.90
59469;DHT22;45277;52.768;18.262;2022-11-20T07:52:48;-0.70;99.90
59469;DHT22;45277;52.768;18.262;2022-11-20T07:54:21;-0.70;99.90
59469;DHT22;45277;52.768;18.262;2022-11-20T07:55:52;-0.70;99.90
59469;DHT22;45277;52.768;18.262;2022-11-20T07:57:24;-0.70;99.90
59469;DHT22;45277;52.768;18.262;2022-11-20T07:58:55;-0.70;99.90
59469;DHT22;45277;52.768;18.262;2022-11-20T08:00:27;-0.70;99.90
59469;DHT22;45277;52.768;18.262;2022-11-20T08:01:58;-0.70;99.90
59469;DHT22;45277;52.768;18.262;2022-11-20T08:03:31;-0.70;99.90
59469;DHT22;45277;52.768;18.262;2022-11-20T08:05:02;-0.70;99.90
59469;DHT22;45277;52.768;18.262;2022-11-20T08:06:33;-0.70;99.90
59469;DHT22;45277;52.768;18.262;2022-11-20T08:08:05;-0.70;99.90
59469;DHT22;45277;52.768;18.262;2022-11-20T08:09:38;-0.70;99.90
59469;DHT22;45277;52.768;18.262;2022-11-20T08:11:09;-0.70;99.90
59469;DHT22;45277;52.768;18.262;2022-11-20T08:12:59;-0.70;99.90
59469;DHT22;45277;52.768;18.262;2022-11-20T08:14:49;-0.70;99.90
59469;DHT22;45277;52.768;18.262;2022-11-20T08:16:21;-0.70;99.90
59469;DHT22;45277;52.768;18.262;2022-11-20T08:17:59;-0.70;99.90
59469;DHT22;45277;52.768;18.262;2022-11-20T08:19:31;-0.70;99.90
59469;DHT22;45277;52.768;18.262;2022-11-20T08:21:04;-0.60;99.90
59469;DHT22;45277;52.768;18.262;2022-11-20T08:22:35;-0.60;99.90
59469;DHT22;45277;52.768;18.262;2022-11-20T08:24:08;-0.50;99.90
59469;DHT22;45277;52.768;18.262;2022-11-20T08:25:39;-0.50;99.90
59469;DHT22;45277;52.768;18.262;2022-11-20T08:27:11;-0.60;99.90
59469;DHT22;45277;52.768;18.262;2022-11-20T08:28:43;-0.60;99.90
59469;DHT22;45277;52.768;18.262;2022-11-20T08:30:15;-0.60;99.90
59469;DHT22;45277;52.768;18.262;2022-11-20T08:31:46;-0.60;99.90
59469;DHT22;45277;52.768;18.262;2022-11-20T08:33:38;-0.50;99.90
59469;DHT22;45277;52.768;18.262;2022-11-20T08:35:09;-0.50;99.90
59469;DHT22;45277;52.768;18.262;2022-11-20T08:36:41;-0.50;99.90
59469;DHT22;45277;52.768;18.262;2022-11-20T08:38:12;-0.40;99.90
59469;DHT22;45277;52.768;18.262;2022-11-20T08:39:43;-0.30;99.90
59469;DHT22;45277;52.768;18.262;2022-11-20T08:41:15;-0.30;99.90
59469;DHT22;45277;52.768;18.262;2022-11-20T08:42:59;-0.30;99.90
59469;DHT22;45277;52.768;18.262;2022-11-20T08:44:30;-0.10;99.90
59469;DHT22;45277;52.768;18.262;2022-11-20T08:46:02;-0.10;99.90
59469;DHT22;45277;52.768;18.262;2022-11-20T08:47:34;0.00;99.90
59469;DHT22;45277;52.768;18.262;2022-11-20T08:49:07;0.00;99.90
59469;DHT22;45277;52.768;18.262;2022-11-20T08:50:38;0.10;99.90
59469;DHT22;45277;52.768;18.262;2022-11-20T08:52:10;0.10;99.90
59469;DHT22;45277;52.768;18.262;2022-11-20T08:53:42;0.10;99.90
59469;DHT22;45277;52.768;18.262;2022-11-20T08:55:13;0.10;99.90
59469;DHT22;45277;52.768;18.262;2022-11-20T08:56:45;0.10;99.90
59469;DHT22;45277;52.768;18.262;2022-11-20T08:58:16;0.10;99.90
59469;DHT22;45277;52.768;18.262;2022-11-20T08:59:48;0.00;99.90
59469;DHT22;45277;52.768;18.262;2022-11-20T09:01:20;0.00;99.90
59469;DHT22;45277;52.768;18.262;2022-11-20T09:02:52;0.10;99.90
59469;DHT22;45277;52.768;18.262;2022-11-20T09:04:23;0.20;99.90
59469;DHT22;45277;52.768;18.262;2022-11-20T09:06:03;0.20;99.90
59469;DHT22;45277;52.768;18.262;2022-11-20T09:07:35;0.30;99.90
59469;DHT22;45277;52.768;18.262;2022-11-20T09:09:07;0.30;99.90
59469;DHT22;45277;52.768;18.262;2022-11-20T09:10:38;0.30;99.90
59469;DHT22;45277;52.768;18.262;2022-11-20T09:12:13;0.20;99.90
59469;DHT22;45277;52.768;18.262;2022-11-20T09:13:45;0.20;99.90
59469;DHT22;45277;52.768;18.262;2022-11-20T09:15:17;0.20;99.90
59469;DHT22;45277;52.768;18.262;2022-11-20T09:16:49;0.10;99.90
59469;DHT22;45277;52.768;18.262;2022-11-20T09:18:20;0.20;99.90
59469;DHT22;45277;52.768;18.262;2022-11-20T09:19:53;0.10;99.90
59469;DHT22;45277;52.768;18.262;2022-11-20T09:21:24;0.10;99.90
59469;DHT22;45277;52.768;18.262;2022-11-20T09:22:57;0.10;99.90
59469;DHT22;45277;52.768;18.262;2022-11-20T09:24:29;0.00;99.90
59469;DHT22;45277;52.768;18.262;2022-11-20T09:26:18;0.00;99.90
59469;DHT22;45277;52.768;18.262;2022-11-20T09:27:57;0.00;99.90
59469;DHT22;45277;52.768;18.262;2022-11-20T09:29:29;-0.10;99.90
59469;DHT22;45277;52.768;18.262;2022-11-20T09:31:00;-0.10;99.90
59469;DHT22;45277;52.768;18.262;2022-11-20T09:32:35;-0.10;99.90
59469;DHT22;45277;52.768;18.262;2022-11-20T09:34:07;-0.10;99.90
59469;DHT22;45277;52.768;18.262;2022-11-20T09:35:39;-0.20;99.90
59469;DHT22;45277;52.768;18.262;2022-11-20T09:37:10;-0.20;99.90
59469;DHT22;45277;52.768;18.262;2022-11-20T09:38:42;-0.10;99.90
59469;DHT22;45277;52.768;18.262;2022-11-20T09:40:27;-0.10;99.90
59469;DHT22;45277;52.768;18.262;2022-11-20T09:46:04;0.20;99.90